Time;durP1;ratioP1;P1;durP2;ratioP2;P2;SDS_P1;SDS_P2;PMS_P1;PMS_P2;Temp;Humidity;BMP_temperature;BMP_pressure;BME280_temperature;BME280_humidity;BME280_pressure;Samples;Min_cycle;Max_cycle;Signal;HPM_P1;HPM_P2
2024/03/15 00:01:37;;;;;;;106.15;100.80;;;;;;;;;;5112563;28;20043;-53
2024/03/15 00:04:03;;;;;;;103.75;98.57;;;;;;;;;;5111150;28;20039;-54
2024/03/15 00:06:29;;;;;;;106.28;100.97;;;;;;;;;;5111977;28;20108;-54
2024/03/15 00:08:56;;;;;;;107.80;102.32;;;;;;;;;;5110170;28;20055;-54
2024/03/15 00:11:22;;;;;;;101.45;96.40;;;;;;;;;;5095415;27;20114;-53
2024/03/15 00:13:48;;;;;;;103.95;98.68;;;;;;;;;;5118499;27;20024;-54
2024/03/15 00:16:14;;;;;;;97.65;92.80;;;;;;;;;;5115375;27;20037;-52
2024/03/15 00:18:39;;;;;;;100.05;95.10;;;;;;;;;;5095020;27;20375;-54
2024/03/15 00:21:05;;;;;;;100.55;95.57;;;;;;;;;;5116859;27;20077;-50
2024/03/15 00:23:30;;;;;;;100.57;95.53;;;;;;;;;;5115205;27;20357;-54
2024/03/15 00:25:58;;;;;;;107.70;102.32;;;;;;;;;;5115913;27;20468;-46
2024/03/15 00:28:23;;;;;;;107.80;102.00;;;;;;;;;;5116625;27;20050;-51
2024/03/15 00:30:49;;;;;;;102.22;97.13;;;;;;;;;;5115172;27;20672;-47
2024/03/15 00:33:15;;;;;;;109.75;104.22;;;;;;;;;;5097770;27;20034;-56
2024/03/15 00:35:42;;;;;;;107.70;102.28;;;;;;;;;;5115677;27;20124;-55
2024/03/15 00:38:08;;;;;;;107.75;102.43;;;;;;;;;;5114087;27;20445;-53
2024/03/15 00:40:33;;;;;;;109.40;103.97;;;;;;;;;;5115114;27;20095;-53
2024/03/15 00:42:59;;;;;;;109.57;104.03;;;;;;;;;;5095877;27;20031;-53
2024/03/15 00:45:25;;;;;;;104.20;99.03;;;;;;;;;;5114226;27;20036;-51
2024/03/15 00:47:52;;;;;;;100.20;95.22;;;;;;;;;;5114522;27;20106;-54
2024/03/15 00:50:17;;;;;;;109.28;103.82;;;;;;;;;;5114716;27;20082;-54
2024/03/15 00:52:43;;;;;;;108.15;102.72;;;;;;;;;;5114494;27;20063;-55
2024/03/15 00:55:08;;;;;;;114.65;108.88;;;;;;;;;;5113207;27;20035;-55
2024/03/15 00:57:34;;;;;;;120.28;114.20;;;;;;;;;;5117186;27;20066;-54
2024/03/15 01:00:01;;;;;;;116.68;110.88;;;;;;;;;;5115584;27;20418;-54
2024/03/15 01:02:27;;;;;;;109.30;103.88;;;;;;;;;;5114881;27;20038;-54
2024/03/15 01:04:52;;;;;;;108.80;103.35;;;;;;;;;;5116943;27;20475;-51
2024/03/15 01:07:19;;;;;;;118.40;112.50;;;;;;;;;;5119520;27;20054;-54
2024/03/15 01:09:45;;;;;;;116.53;110.72;;;;;;;;;;5116379;27;20043;-53
2024/03/15 01:12:10;;;;;;;110.00;104.50;;;;;;;;;;5116306;27;20092;-55
2024/03/15 01:14:35;;;;;;;116.97;111.13;;;;;;;;;;5114056;27;20065;-52
2024/03/15 01:17:01;;;;;;;115.32;109.60;;;;;;;;;;5114186;27;20035;-55
2024/03/15 01:19:26;;;;;;;121.28;113.70;;;;;;;;;;5116753;27;20500;-53
2024/03/15 01:21:52;;;;;;;120.70;114.57;;;;;;;;;;5112179;27;20166;-52
2024/03/15 01:24:17;;;;;;;116.18;110.38;;;;;;;;;;5114795;27;20039;-51
2024/03/15 01:26:43;;;;;;;116.65;110.78;;;;;;;;;;5113942;27;20522;-53
2024/03/15 01:29:08;;;;;;;119.95;113.93;;;;;;;;;;5080716;27;20508;-53
2024/03/15 01:31:34;;;;;;;117.50;111.63;;;;;;;;;;5114501;27;20036;-49
2024/03/15 01:34:00;;;;;;;121.82;115.75;;;;;;;;;;5109654;27;20368;-51
2024/03/15 01:36:25;;;;;;;118.68;112.70;;;;;;;;;;5114968;27;20036;-50
2024/03/15 01:38:50;;;;;;;118.13;112.18;;;;;;;;;;5113005;27;20038;-52
2024/03/15 01:41:16;;;;;;;122.25;116.13;;;;;;;;;;5112865;27;20035;-55
2024/03/15 01:43:50;;;;;;;120.97;114.90;;;;;;;;;;5114832;27;20496;-50
2024/03/15 01:46:16;;;;;;;120.97;115.00;;;;;;;;;;5114890;27;20036;-52
2024/03/15 01:48:44;;;;;;;126.70;120.38;;;;;;;;;;5115119;27;20031;-48
2024/03/15 01:51:11;;;;;;;126.35;120.05;;;;;;;;;;5116661;27;20039;-54
2024/03/15 01:53:37;;;;;;;123.65;117.47;;;;;;;;;;5111785;27;20138;-53
2024/03/15 01:56:02;;;;;;;125.50;119.25;;;;;;;;;;5113678;27;20111;-53
2024/03/15 01:58:28;;;;;;;128.50;121.88;;;;;;;;;;5113220;27;20035;-55
2024/03/15 02:00:56;;;;;;;131.82;125.10;;;;;;;;;;5095816;27;20050;-56
2024/03/15 02:03:23;;;;;;;123.20;117.05;;;;;;;;;;5111892;27;20031;-56
2024/03/15 02:05:48;;;;;;;124.80;118.55;;;;;;;;;;5115235;27;20040;-55
2024/03/15 02:08:20;;;;;;;118.13;112.28;;;;;;;;;;5112689;27;20041;-55
2024/03/15 02:10:46;;;;;;;113.55;107.80;;;;;;;;;;5116432;27;20134;-47
2024/03/15 02:13:11;;;;;;;121.75;115.68;;;;;;;;;;5114218;27;20636;-55
2024/03/15 02:15:36;;;;;;;120.35;114.22;;;;;;;;;;5111652;27;20095;-54
2024/03/15 02:18:03;;;;;;;111.28;105.65;;;;;;;;;;5115040;27;20144;-49
2024/03/15 02:20:28;;;;;;;109.38;103.93;;;;;;;;;;5094351;28;20508;-53
2024/03/15 02:22:54;;;;;;;106.45;101.20;;;;;;;;;;5116387;27;20099;-50
2024/03/15 02:25:19;;;;;;;109.78;104.30;;;;;;;;;;5113159;27;20039;-52
2024/03/15 02:27:44;;;;;;;112.20;106.65;;;;;;;;;;5113949;27;20043;-52
2024/03/15 02:30:11;;;;;;;110.97;105.35;;;;;;;;;;5111953;27;20023;-52
2024/03/15 02:32:38;;;;;;;114.15;108.47;;;;;;;;;;5112944;27;20096;-54
2024/03/15 02:35:07;;;;;;;115.68;109.85;;;;;;;;;;5112901;27;20461;-54
2024/03/15 02:37:33;;;;;;;122.63;116.47;;;;;;;;;;5112581;27;20517;-52
2024/03/15 02:39:58;;;;;;;113.35;107.70;;;;;;;;;;5112476;27;20040;-49
2024/03/15 02:42:23;;;;;;;119.40;113.43;;;;;;;;;;5113332;27;20091;-47
2024/03/15 02:44:49;;;;;;;101.28;96.22;;;;;;;;;;5114614;27;20043;-48
2024/03/15 02:47:14;;;;;;;108.55;103.13;;;;;;;;;;5113682;27;20103;-48
2024/03/15 02:49:40;;;;;;;108.20;102.80;;;;;;;;;;5111557;27;20067;-50
2024/03/15 02:52:05;;;;;;;112.10;106.57;;;;;;;;;;5113122;27;20106;-50
2024/03/15 02:54:30;;;;;;;103.47;98.32;;;;;;;;;;5113101;27;20028;-50
2024/03/15 02:56:56;;;;;;;111.85;106.03;;;;;;;;;;5109019;28;20055;-49
2024/03/15 02:59:23;;;;;;;108.18;102.72;;;;;;;;;;5111636;28;20039;-50
2024/03/15 03:01:49;;;;;;;110.75;104.88;;;;;;;;;;5113186;28;20074;-52
2024/03/15 03:04:15;;;;;;;105.45;100.15;;;;;;;;;;5112849;28;20070;-54
2024/03/15 03:06:42;;;;;;;107.63;102.05;;;;;;;;;;5112122;28;20460;-51
2024/03/15 03:09:09;;;;;;;107.90;102.50;;;;;;;;;;5112313;28;20528;-52
2024/03/15 03:11:36;;;;;;;111.47;105.93;;;;;;;;;;5112486;28;20035;-55
2024/03/15 03:14:02;;;;;;;111.40;105.75;;;;;;;;;;5112790;28;20039;-55
2024/03/15 03:16:27;;;;;;;110.22;104.70;;;;;;;;;;5112549;28;20586;-47
2024/03/15 03:18:53;;;;;;;111.47;105.75;;;;;;;;;;5097465;28;20106;-49
2024/03/15 03:21:18;;;;;;;113.25;107.57;;;;;;;;;;5111443;28;20031;-53
2024/03/15 03:23:44;;;;;;;110.65;105.00;;;;;;;;;;5112374;28;20653;-52
2024/03/15 03:26:10;;;;;;;107.75;102.35;;;;;;;;;;5111436;28;20043;-51
2024/03/15 03:28:36;;;;;;;104.28;99.05;;;;;;;;;;5114318;28;20043;-52
2024/03/15 03:31:02;;;;;;;113.65;107.90;;;;;;;;;;5114084;28;20035;-53
2024/03/15 03:33:28;;;;;;;115.82;110.03;;;;;;;;;;5114519;28;20023;-54
2024/03/15 03:35:55;;;;;;;118.53;112.60;;;;;;;;;;5114432;28;20037;-51
2024/03/15 03:38:21;;;;;;;123.38;117.10;;;;;;;;;;5110384;28;20031;-54
2024/03/15 03:40:46;;;;;;;121.85;115.72;;;;;;;;;;5112847;28;20408;-54
2024/03/15 03:43:13;;;;;;;130.23;123.68;;;;;;;;;;5111230;28;20024;-55
2024/03/15 03:45:42;;;;;;;142.07;134.98;;;;;;;;;;5113101;27;20471;-51
2024/03/15 03:48:07;;;;;;;139.27;132.27;;;;;;;;;;5117154;27;20031;-52
2024/03/15 03:50:33;;;;;;;134.00;126.60;;;;;;;;;;5097825;27;20391;-53
2024/03/15 03:52:58;;;;;;;139.50;132.50;;;;;;;;;;5115914;27;20042;-50
2024/03/15 03:55:25;;;;;;;141.23;134.10;;;;;;;;;;5116079;27;20032;-51
2024/03/15 03:57:51;;;;;;;138.80;131.85;;;;;;;;;;5114433;27;20501;-49
2024/03/15 04:00:16;;;;;;;149.23;141.73;;;;;;;;;;5096974;27;20070;-49
2024/03/15 04:02:52;;;;;;;149.05;141.60;;;;;;;;;;5116391;27;20037;-49
2024/03/15 04:05:18;;;;;;;151.95;144.32;;;;;;;;;;5115626;27;20070;-52
2024/03/15 04:07:46;;;;;;;155.57;147.80;;;;;;;;;;5114502;27;20775;-50
2024/03/15 04:10:13;;;;;;;141.52;134.43;;;;;;;;;;5114749;27;20102;-55
2024/03/15 04:12:40;;;;;;;139.20;132.20;;;;;;;;;;5117820;27;20024;-54
2024/03/15 04:15:10;;;;;;;145.88;138.48;;;;;;;;;;5113756;27;20042;-47
2024/03/15 04:17:36;;;;;;;140.70;133.65;;;;;;;;;;5113428;27;20066;-48
2024/03/15 04:20:01;;;;;;;142.95;135.75;;;;;;;;;;5097258;27;20377;-56
2024/03/15 04:22:27;;;;;;;130.40;123.85;;;;;;;;;;5108280;27;20028;-48
2024/03/15 04:24:54;;;;;;;156.63;148.77;;;;;;;;;;5115765;27;20027;-54
2024/03/15 04:27:20;;;;;;;173.63;165.00;;;;;;;;;;5114520;27;20084;-51
2024/03/15 04:29:45;;;;;;;168.55;160.00;;;;;;;;;;5116664;27;20108;-55
2024/03/15 04:32:12;;;;;;;168.70;160.15;;;;;;;;;;5112383;27;20453;-54
2024/03/15 04:34:38;;;;;;;164.60;156.40;;;;;;;;;;5114920;27;20027;-54
2024/03/15 04:37:04;;;;;;;162.30;154.23;;;;;;;;;;5112443;27;20032;-49
2024/03/15 04:39:30;;;;;;;153.85;146.10;;;;;;;;;;5116678;27;20051;-52
2024/03/15 04:41:56;;;;;;;143.57;136.48;;;;;;;;;;5114438;27;20369;-48
2024/03/15 04:44:22;;;;;;;142.45;135.35;;;;;;;;;;5115368;27;20031;-51
2024/03/15 04:46:48;;;;;;;136.15;129.30;;;;;;;;;;5115498;27;20034;-52
2024/03/15 04:49:14;;;;;;;139.07;132.13;;;;;;;;;;5116202;27;20032;-55
2024/03/15 04:51:39;;;;;;;132.32;125.70;;;;;;;;;;5115205;27;20608;-49
2024/03/15 04:54:05;;;;;;;132.15;125.53;;;;;;;;;;5112498;27;20040;-51
2024/03/15 04:56:30;;;;;;;146.38;139.10;;;;;;;;;;5114653;27;20016;-48
2024/03/15 04:58:56;;;;;;;142.82;135.70;;;;;;;;;;5114387;27;20360;-50
2024/03/15 05:01:22;;;;;;;143.55;136.40;;;;;;;;;;5116058;27;20042;-48
2024/03/15 05:03:48;;;;;;;142.40;135.18;;;;;;;;;;5126249;27;20039;-51
2024/03/15 05:06:13;;;;;;;151.20;143.60;;;;;;;;;;5114216;27;20039;-49
2024/03/15 05:08:38;;;;;;;151.00;143.48;;;;;;;;;;5092243;28;20135;-50
2024/03/15 05:11:04;;;;;;;156.20;148.30;;;;;;;;;;5114679;27;20031;-48
2024/03/15 05:13:29;;;;;;;149.93;142.43;;;;;;;;;;5115920;27;20512;-48
2024/03/15 05:15:55;;;;;;;152.02;144.40;;;;;;;;;;5112328;27;20139;-48
2024/03/15 05:18:20;;;;;;;158.55;150.60;;;;;;;;;;5112938;27;20027;-52
2024/03/15 05:20:49;;;;;;;157.45;149.60;;;;;;;;;;5114480;27;20031;-52
2024/03/15 05:23:14;;;;;;;154.40;146.68;;;;;;;;;;5112985;27;20031;-52
2024/03/15 05:25:42;;;;;;;155.95;148.18;;;;;;;;;;5097622;27;20407;-53
2024/03/15 05:28:08;;;;;;;153.13;145.45;;;;;;;;;;5113735;27;20475;-52
2024/03/15 05:30:34;;;;;;;154.88;147.00;;;;;;;;;;5097764;27;20031;-52
2024/03/15 05:32:59;;;;;;;153.88;146.13;;;;;;;;;;5115815;27;20031;-53
2024/03/15 05:35:25;;;;;;;153.57;145.75;;;;;;;;;;5113807;27;20026;-50
2024/03/15 05:37:51;;;;;;;150.50;143.02;;;;;;;;;;5112711;27;20555;-52
2024/03/15 05:40:17;;;;;;;153.63;145.95;;;;;;;;;;5112365;27;20570;-52
2024/03/15 05:42:43;;;;;;;151.27;143.70;;;;;;;;;;5114716;27;20054;-50
2024/03/15 05:45:08;;;;;;;154.82;147.15;;;;;;;;;;5112397;27;20032;-53
2024/03/15 05:47:33;;;;;;;147.40;139.98;;;;;;;;;;5113303;27;20038;-51
2024/03/15 05:50:00;;;;;;;160.30;151.30;;;;;;;;;;5109869;27;20085;-52
2024/03/15 05:52:25;;;;;;;155.23;147.52;;;;;;;;;;5112424;27;20030;-50
2024/03/15 05:54:50;;;;;;;154.18;146.48;;;;;;;;;;5095322;27;20100;-55
2024/03/15 05:57:16;;;;;;;142.40;135.27;;;;;;;;;;5113639;27;20034;-55
2024/03/15 05:59:41;;;;;;;149.85;142.32;;;;;;;;;;5112521;27;20023;-49
2024/03/15 06:02:06;;;;;;;154.25;146.27;;;;;;;;;;5115096;27;20031;-55
2024/03/15 06:04:35;;;;;;;153.02;145.32;;;;;;;;;;5113846;27;20028;-49
2024/03/15 06:07:00;;;;;;;150.80;143.27;;;;;;;;;;5112081;27;20465;-55
2024/03/15 06:09:26;;;;;;;158.40;150.43;;;;;;;;;;5114191;27;20054;-54
2024/03/15 06:11:51;;;;;;;161.82;153.75;;;;;;;;;;5116154;27;20031;-53
2024/03/15 06:14:17;;;;;;;169.82;161.32;;;;;;;;;;5112299;27;20023;-52
2024/03/15 06:16:43;;;;;;;161.38;153.30;;;;;;;;;;5111433;27;20023;-55
2024/03/15 06:19:09;;;;;;;162.55;154.43;;;;;;;;;;5098328;27;20042;-50
2024/03/15 06:21:34;;;;;;;170.43;161.95;;;;;;;;;;5114754;27;20342;-50
2024/03/15 06:24:00;;;;;;;156.85;149.00;;;;;;;;;;5112224;27;20107;-56
2024/03/15 06:26:26;;;;;;;161.65;153.55;;;;;;;;;;5114399;27;20027;-55
2024/03/15 06:28:53;;;;;;;147.60;140.25;;;;;;;;;;5114388;27;20092;-55
2024/03/15 06:31:19;;;;;;;150.45;142.90;;;;;;;;;;5113413;27;20031;-54
2024/03/15 06:33:47;;;;;;;148.30;140.80;;;;;;;;;;5094616;27;20053;-54
2024/03/15 06:36:16;;;;;;;156.93;148.85;;;;;;;;;;5113084;27;20051;-53
2024/03/15 06:41:40;;;;;;;192.77;183.25;;;;;;;;;;5115787;27;20035;-52
2024/03/15 06:46:52;;;;;;;181.82;172.70;;;;;;;;;;5113496;27;20039;-55
2024/03/15 06:49:24;;;;;;;168.68;160.20;;;;;;;;;;5095050;27;20111;-56
2024/03/15 06:54:34;;;;;;;170.82;162.30;;;;;;;;;;5114128;27;20027;-56
2024/03/15 06:56:59;;;;;;;166.25;157.88;;;;;;;;;;5117503;27;20072;-53
2024/03/15 06:59:25;;;;;;;141.05;134.00;;;;;;;;;;5114079;27;20028;-56
2024/03/15 07:01:52;;;;;;;122.20;116.15;;;;;;;;;;5114136;28;20083;-56
2024/03/15 07:04:18;;;;;;;128.32;121.95;;;;;;;;;;5116045;28;20027;-56
2024/03/15 07:06:44;;;;;;;131.13;124.63;;;;;;;;;;5110581;28;20054;-55
2024/03/15 07:09:14;;;;;;;128.90;122.50;;;;;;;;;;5110259;28;20039;-56
2024/03/15 07:11:40;;;;;;;124.88;118.47;;;;;;;;;;5110736;28;20039;-47
2024/03/15 07:14:08;;;;;;;133.30;126.20;;;;;;;;;;5116565;28;20038;-54
2024/03/15 07:16:35;;;;;;;133.00;126.38;;;;;;;;;;5113212;28;20051;-56
2024/03/15 07:19:01;;;;;;;138.32;131.45;;;;;;;;;;5098296;27;20495;-52
2024/03/15 07:21:26;;;;;;;102.78;97.65;;;;;;;;;;5119307;27;20047;-50
2024/03/15 07:23:52;;;;;;;94.22;89.03;;;;;;;;;;5117343;27;20360;-54
2024/03/15 07:26:17;;;;;;;85.00;80.75;;;;;;;;;;5118616;27;20035;-51
2024/03/15 07:28:44;;;;;;;95.18;90.40;;;;;;;;;;5117549;27;20023;-50
2024/03/15 07:31:10;;;;;;;105.85;100.60;;;;;;;;;;5115837;27;20118;-51
2024/03/15 07:33:37;;;;;;;114.53;108.57;;;;;;;;;;5118098;27;20070;-51
2024/03/15 07:36:05;;;;;;;134.23;127.50;;;;;;;;;;5117602;27;20046;-49
2024/03/15 07:38:31;;;;;;;156.00;148.25;;;;;;;;;;5115766;27;20110;-49
2024/03/15 07:40:57;;;;;;;142.90;135.82;;;;;;;;;;5116278;27;20118;-52
2024/03/15 07:43:22;;;;;;;170.20;161.75;;;;;;;;;;5119656;27;20397;-48
2024/03/15 07:45:50;;;;;;;167.25;159.00;;;;;;;;;;5115554;27;20117;-47
2024/03/15 07:48:16;;;;;;;157.48;149.68;;;;;;;;;;5116666;27;20106;-48
2024/03/15 07:50:43;;;;;;;164.70;156.52;;;;;;;;;;5117590;27;20548;-47
2024/03/15 07:53:08;;;;;;;160.23;152.30;;;;;;;;;;5117636;27;20452;-47
2024/03/15 07:55:35;;;;;;;159.00;151.02;;;;;;;;;;5118066;27;20027;-48
2024/03/15 07:58:01;;;;;;;146.55;139.27;;;;;;;;;;5117680;27;20440;-47
2024/03/15 08:00:27;;;;;;;153.02;145.43;;;;;;;;;;5116111;27;20042;-53
2024/03/15 08:02:53;;;;;;;156.23;148.52;;;;;;;;;;5115760;27;20119;-54
2024/03/15 08:05:22;;;;;;;147.63;140.27;;;;;;;;;;5117380;27;20110;-52
2024/03/15 08:07:48;;;;;;;129.23;122.78;;;;;;;;;;5116387;27;20070;-51
2024/03/15 08:10:14;;;;;;;126.80;120.38;;;;;;;;;;5117382;27;20137;-50
2024/03/15 08:12:41;;;;;;;99.35;94.40;;;;;;;;;;5114984;27;20069;-53
2024/03/15 08:15:07;;;;;;;100.70;95.65;;;;;;;;;;5114738;27;20036;-55
2024/03/15 08:17:33;;;;;;;99.60;94.63;;;;;;;;;;5115799;27;20445;-49
2024/03/15 08:19:58;;;;;;;98.22;93.28;;;;;;;;;;5115531;27;20031;-49
2024/03/15 08:22:23;;;;;;;92.65;88.00;;;;;;;;;;5117171;27;20030;-49
2024/03/15 08:24:48;;;;;;;94.72;89.57;;;;;;;;;;5115394;27;20035;-56
2024/03/15 08:27:14;;;;;;;80.45;76.43;;;;;;;;;;5113335;27;20077;-56
2024/03/15 08:29:39;;;;;;;69.65;66.15;;;;;;;;;;5113262;27;20050;-56
2024/03/15 08:32:06;;;;;;;62.60;59.38;;;;;;;;;;5110264;27;20026;-58
2024/03/15 08:34:33;;;;;;;49.55;47.05;;;;;;;;;;5114061;27;20095;-53
2024/03/15 08:36:59;;;;;;;49.55;46.85;;;;;;;;;;5112938;27;20381;-50
2024/03/15 08:39:24;;;;;;;52.00;49.20;;;;;;;;;;5118102;27;20031;-50
2024/03/15 08:41:50;;;;;;;58.70;55.72;;;;;;;;;;5096685;27;20038;-51
2024/03/15 08:44:16;;;;;;;57.60;54.70;;;;;;;;;;5116226;27;20487;-53
2024/03/15 08:46:43;;;;;;;52.30;49.65;;;;;;;;;;5111475;27;20042;-50
2024/03/15 08:49:10;;;;;;;66.78;63.40;;;;;;;;;;5119035;27;20365;-54
2024/03/15 08:51:37;;;;;;;69.97;66.45;;;;;;;;;;5114142;27;20479;-56
2024/03/15 08:54:04;;;;;;;74.07;70.30;;;;;;;;;;5113759;27;20035;-55
2024/03/15 08:56:30;;;;;;;86.68;82.20;;;;;;;;;;5112272;27;20069;-50
2024/03/15 08:58:58;;;;;;;82.65;78.53;;;;;;;;;;5115812;27;20031;-52
2024/03/15 09:01:27;;;;;;;89.35;84.65;;;;;;;;;;5109824;27;20027;-55
2024/03/15 09:03:52;;;;;;;79.60;75.63;;;;;;;;;;5113799;27;20024;-56
2024/03/15 09:06:19;;;;;;;75.72;71.93;;;;;;;;;;5096044;27;20099;-55
2024/03/15 09:08:54;;;;;;;90.47;85.97;;;;;;;;;;5112953;27;20133;-56
2024/03/15 09:11:20;;;;;;;91.93;87.28;;;;;;;;;;5113389;27;20645;-55
2024/03/15 09:13:45;;;;;;;88.72;84.32;;;;;;;;;;5115555;27;20459;-56
2024/03/15 09:16:13;;;;;;;95.85;91.10;;;;;;;;;;5113574;27;20101;-54
2024/03/15 09:18:38;;;;;;;87.72;83.32;;;;;;;;;;5115709;27;20113;-56
2024/03/15 09:21:04;;;;;;;80.60;76.47;;;;;;;;;;5112788;27;20455;-56
2024/03/15 09:23:29;;;;;;;80.63;76.43;;;;;;;;;;5094926;27;20054;-56
2024/03/15 09:25:55;;;;;;;84.22;80.00;;;;;;;;;;5113755;27;20599;-55
2024/03/15 09:28:23;;;;;;;71.93;68.32;;;;;;;;;;5112263;27;20039;-52
2024/03/15 09:33:15;;;;;;;78.05;74.18;;;;;;;;;;5111550;27;20042;-56
2024/03/15 09:35:44;;;;;;;90.00;85.40;;;;;;;;;;5111653;27;20038;-56
2024/03/15 09:38:11;;;;;;;82.53;78.35;;;;;;;;;;5111461;27;20118;-54
2024/03/15 09:40:37;;;;;;;88.65;84.13;;;;;;;;;;5111057;27;20027;-50
2024/03/15 09:43:04;;;;;;;97.30;92.25;;;;;;;;;;5114285;27;20032;-56
2024/03/15 09:45:29;;;;;;;101.38;96.38;;;;;;;;;;5110236;27;20106;-56
2024/03/15 09:47:55;;;;;;;111.28;105.78;;;;;;;;;;5096908;27;20536;-56
2024/03/15 09:50:24;;;;;;;111.80;106.28;;;;;;;;;;5113192;27;20027;-56
2024/03/15 09:52:51;;;;;;;113.63;108.00;;;;;;;;;;5112579;27;20047;-55
2024/03/15 09:55:17;;;;;;;104.47;99.28;;;;;;;;;;5111165;27;20035;-55
2024/03/15 09:57:44;;;;;;;108.22;102.82;;;;;;;;;;5114735;27;20031;-55
2024/03/15 10:00:16;;;;;;;123.53;116.88;;;;;;;;;;5111584;27;20045;-54
2024/03/15 10:02:47;;;;;;;111.90;106.38;;;;;;;;;;5093136;27;20032;-54
2024/03/15 10:05:13;;;;;;;112.15;106.63;;;;;;;;;;5111567;27;20483;-56
2024/03/15 10:07:39;;;;;;;115.35;109.68;;;;;;;;;;5093234;28;20041;-49
2024/03/15 10:10:06;;;;;;;117.43;111.57;;;;;;;;;;5108684;27;20031;-49
2024/03/15 10:12:33;;;;;;;119.25;113.30;;;;;;;;;;5112819;27;20364;-50
2024/03/15 10:14:59;;;;;;;116.40;110.55;;;;;;;;;;5112304;27;20585;-48
2024/03/15 10:17:25;;;;;;;133.60;126.97;;;;;;;;;;5095794;27;20631;-51
2024/03/15 10:19:50;;;;;;;136.88;130.07;;;;;;;;;;5112899;27;20118;-50
2024/03/15 10:22:15;;;;;;;142.30;135.25;;;;;;;;;;5113767;27;20066;-49
2024/03/15 10:24:41;;;;;;;136.13;129.32;;;;;;;;;;5110993;27;20034;-50
2024/03/15 10:27:12;;;;;;;135.05;128.32;;;;;;;;;;5114269;27;20031;-52
2024/03/15 10:29:38;;;;;;;140.50;133.50;;;;;;;;;;5111858;27;20046;-49
2024/03/15 10:32:03;;;;;;;154.00;146.30;;;;;;;;;;5114081;27;20023;-50
2024/03/15 10:34:30;;;;;;;176.52;167.82;;;;;;;;;;5108270;27;20468;-50
2024/03/15 10:36:55;;;;;;;181.98;172.90;;;;;;;;;;5111326;27;20034;-49
2024/03/15 10:39:23;;;;;;;212.82;202.27;;;;;;;;;;5109949;27;20027;-52
2024/03/15 10:41:49;;;;;;;247.35;235.05;;;;;;;;;;5113038;27;20114;-52
2024/03/15 10:44:15;;;;;;;271.67;258.08;;;;;;;;;;5093715;27;20059;-50
2024/03/15 10:46:41;;;;;;;226.98;215.82;;;;;;;;;;5113521;28;20043;-50
2024/03/15 10:49:13;;;;;;;222.55;211.65;;;;;;;;;;5093520;27;20464;-49
2024/03/15 10:51:41;;;;;;;200.82;190.93;;;;;;;;;;5113479;27;20036;-51
2024/03/15 10:54:17;;;;;;;207.52;197.25;;;;;;;;;;5109614;28;20608;-52
2024/03/15 10:56:42;;;;;;;187.82;178.52;;;;;;;;;;5116187;27;20027;-50
2024/03/15 10:59:10;;;;;;;195.77;186.15;;;;;;;;;;5112082;28;20027;-53
2024/03/15 11:01:36;;;;;;;206.35;196.05;;;;;;;;;;5113331;28;20489;-51
2024/03/15 11:04:03;;;;;;;215.20;204.55;;;;;;;;;;5110884;28;20036;-54
2024/03/15 11:06:44;;;;;;;197.70;187.90;;;;;;;;;;5108854;28;20043;-47
2024/03/15 11:09:13;;;;;;;186.85;177.65;;;;;;;;;;5111595;28;20024;-53
2024/03/15 11:11:39;;;;;;;230.40;218.93;;;;;;;;;;5109005;28;20127;-52
2024/03/15 11:14:14;;;;;;;242.10;230.20;;;;;;;;;;5111464;28;20043;-52
2024/03/15 11:16:40;;;;;;;251.57;239.13;;;;;;;;;;5111900;28;20457;-52
2024/03/15 11:19:05;;;;;;;257.02;244.32;;;;;;;;;;5111197;28;20041;-51
2024/03/15 11:21:32;;;;;;;260.60;247.73;;;;;;;;;;5111569;28;20168;-50
2024/03/15 11:24:07;;;;;;;264.33;251.30;;;;;;;;;;5112274;28;20036;-52
2024/03/15 11:26:33;;;;;;;256.13;243.48;;;;;;;;;;5109490;28;20134;-51
2024/03/15 11:28:58;;;;;;;275.50;261.45;;;;;;;;;;5111117;28;20115;-52
2024/03/15 11:31:28;;;;;;;249.88;237.52;;;;;;;;;;5111442;28;20070;-53
2024/03/15 11:33:57;;;;;;;229.80;218.43;;;;;;;;;;5112333;28;20035;-50
2024/03/15 11:36:25;;;;;;;221.43;210.48;;;;;;;;;;5108458;28;20047;-50
2024/03/15 11:38:50;;;;;;;218.40;207.57;;;;;;;;;;5110704;28;20032;-52
2024/03/15 11:41:17;;;;;;;204.13;194.05;;;;;;;;;;5108250;28;20024;-49
2024/03/15 11:43:42;;;;;;;205.55;195.35;;;;;;;;;;5090725;28;20074;-52
2024/03/15 11:46:08;;;;;;;205.52;195.38;;;;;;;;;;5115141;28;20125;-51
2024/03/15 11:48:33;;;;;;;206.55;196.38;;;;;;;;;;5111111;28;20051;-51
2024/03/15 11:51:01;;;;;;;211.48;201.00;;;;;;;;;;5113587;28;20035;-49
2024/03/15 11:53:26;;;;;;;217.07;206.35;;;;;;;;;;5110087;28;20112;-49
2024/03/15 11:55:52;;;;;;;212.75;202.25;;;;;;;;;;5112474;28;20042;-50
2024/03/15 11:58:19;;;;;;;214.52;203.93;;;;;;;;;;5111106;28;20058;-51
2024/03/15 12:00:51;;;;;;;207.88;197.63;;;;;;;;;;5114515;28;20039;-49
2024/03/15 12:03:20;;;;;;;222.15;211.20;;;;;;;;;;5112780;28;20107;-50
2024/03/15 12:05:46;;;;;;;220.15;209.35;;;;;;;;;;5113323;27;20051;-49
2024/03/15 12:08:20;;;;;;;199.85;190.05;;;;;;;;;;5116428;27;20035;-49
2024/03/15 12:10:48;;;;;;;189.68;180.13;;;;;;;;;;5120346;27;20046;-52
2024/03/15 12:13:25;;;;;;;191.98;182.43;;;;;;;;;;5101244;27;20046;-51
2024/03/15 12:15:54;;;;;;;204.63;194.57;;;;;;;;;;5117785;27;20487;-49
2024/03/15 12:18:21;;;;;;;212.02;201.60;;;;;;;;;;5116970;27;20372;-51
2024/03/15 12:20:50;;;;;;;230.32;219.00;;;;;;;;;;5119861;27;20034;-51
2024/03/15 12:23:17;;;;;;;226.30;215.15;;;;;;;;;;5114958;27;20496;-49
2024/03/15 12:25:43;;;;;;;230.20;218.85;;;;;;;;;;5118262;27;20035;-51
2024/03/15 12:28:14;;;;;;;236.23;224.57;;;;;;;;;;5114671;27;20492;-48
2024/03/15 12:30:41;;;;;;;211.00;200.63;;;;;;;;;;5115680;27;20043;-56
2024/03/15 12:33:07;;;;;;;200.68;190.73;;;;;;;;;;5111464;27;20364;-57
2024/03/15 12:35:33;;;;;;;145.43;138.15;;;;;;;;;;5113843;27;20047;-56
2024/03/15 12:37:59;;;;;;;117.75;111.88;;;;;;;;;;5114573;27;20034;-56
2024/03/15 12:40:25;;;;;;;77.43;73.43;;;;;;;;;;5113303;27;20019;-58
2024/03/15 12:42:51;;;;;;;79.38;75.45;;;;;;;;;;5115713;27;20122;-54
2024/03/15 12:45:16;;;;;;;74.45;70.75;;;;;;;;;;5117431;27;20164;-55
2024/03/15 12:47:42;;;;;;;53.83;51.13;;;;;;;;;;5116871;27;20042;-54
2024/03/15 12:50:15;;;;;;;45.75;43.45;;;;;;;;;;5117640;27;20035;-53
2024/03/15 12:52:40;;;;;;;51.00;48.40;;;;;;;;;;5114486;27;21918;-55
2024/03/15 12:55:11;;;;;;;53.33;50.58;;;;;;;;;;5116357;27;20651;-55
2024/03/15 12:57:37;;;;;;;54.30;51.53;;;;;;;;;;5119874;27;20522;-54
2024/03/15 13:00:05;;;;;;;56.67;53.80;;;;;;;;;;5116784;27;20073;-54
2024/03/15 13:02:31;;;;;;;50.33;47.72;;;;;;;;;;5114569;27;20583;-52
2024/03/15 13:04:56;;;;;;;47.20;44.80;;;;;;;;;;5116727;27;20062;-53
2024/03/15 13:07:22;;;;;;;46.20;43.75;;;;;;;;;;5113315;27;20373;-55
2024/03/15 13:09:47;;;;;;;42.60;40.40;;;;;;;;;;5112955;27;20039;-55
2024/03/15 13:12:13;;;;;;;45.33;43.03;;;;;;;;;;5116065;27;20104;-52
2024/03/15 13:14:38;;;;;;;45.47;43.17;;;;;;;;;;5115683;27;20070;-54
2024/03/15 13:17:03;;;;;;;46.88;44.50;;;;;;;;;;5111241;27;20020;-49
2024/03/15 13:19:29;;;;;;;47.40;44.85;;;;;;;;;;5113866;27;20439;-50
2024/03/15 13:21:55;;;;;;;49.63;46.83;;;;;;;;;;5113399;27;20035;-47
2024/03/15 13:24:20;;;;;;;44.28;42.03;;;;;;;;;;5117136;27;20053;-48
2024/03/15 13:26:46;;;;;;;46.78;44.40;;;;;;;;;;5114509;27;20523;-48
2024/03/15 13:29:12;;;;;;;54.45;51.67;;;;;;;;;;5114434;27;20031;-47
2024/03/15 13:31:38;;;;;;;48.05;45.58;;;;;;;;;;5114627;27;20701;-49
2024/03/15 13:34:03;;;;;;;47.55;45.00;;;;;;;;;;5115408;27;20031;-48
2024/03/15 13:36:29;;;;;;;46.75;44.25;;;;;;;;;;5112209;27;20107;-55
2024/03/15 13:38:56;;;;;;;49.90;47.35;;;;;;;;;;5113529;27;20043;-47
2024/03/15 13:41:24;;;;;;;54.63;51.83;;;;;;;;;;5114797;27;20373;-49
2024/03/15 13:43:50;;;;;;;52.40;49.72;;;;;;;;;;5113184;27;20120;-47
2024/03/15 13:46:16;;;;;;;51.20;48.60;;;;;;;;;;5113724;27;20042;-48
2024/03/15 13:48:43;;;;;;;53.58;50.78;;;;;;;;;;5112563;27;20031;-52
2024/03/15 13:51:12;;;;;;;50.13;47.60;;;;;;;;;;5112435;27;20654;-50
2024/03/15 13:53:44;;;;;;;54.88;52.10;;;;;;;;;;5115316;27;20079;-48
2024/03/15 13:56:12;;;;;;;58.08;55.10;;;;;;;;;;5114489;27;20042;-47
2024/03/15 13:58:38;;;;;;;59.85;56.72;;;;;;;;;;5112142;27;20496;-49
2024/03/15 14:01:11;;;;;;;59.42;56.47;;;;;;;;;;5114228;27;20068;-52
2024/03/15 14:03:36;;;;;;;73.82;70.18;;;;;;;;;;5095327;27;20417;-52
2024/03/15 14:06:03;;;;;;;73.50;69.85;;;;;;;;;;5115398;27;20511;-54